sensor_id;sensor_type;location;lat;lon;timestamp;pressure;altitude;pressure_sealevel;temperature;humidity
71573;BME280;59408;51.032;9.410;2022-08-14T00:01:44;98834.53;;;17.24;80.98
71573;BME280;59408;51.032;9.410;2022-08-14T00:04:21;98832.53;;;17.18;79.72
71573;BME280;59408;51.032;9.410;2022-08-14T00:07:00;98830.13;;;17.13;82.90
71573;BME280;59408;51.032;9.410;2022-08-14T00:09:29;98827.78;;;17.08;82.22
71573;BME280;59408;51.032;9.410;2022-08-14T00:11:59;98829.72;;;17.00;82.16
71573;BME280;59408;51.032;9.410;2022-08-14T00:14:27;98821.41;;;16.97;84.03
71573;BME280;59408;51.032;9.410;2022-08-14T00:16:54;98823.75;;;16.91;82.10
71573;BME280;59408;51.032;9.410;2022-08-14T00:19:21;98819.41;;;16.90;82.16
71573;BME280;59408;51.032;9.410;2022-08-14T00:21:49;98814.66;;;16.87;81.04
71573;BME280;59408;51.032;9.410;2022-08-14T00:24:16;98817.44;;;16.83;81.28
71573;BME280;59408;51.032;9.410;2022-08-14T00:26:56;98807.13;;;16.77;81.53
71573;BME280;59408;51.032;9.410;2022-08-14T00:29:29;98809.84;;;16.66;81.63
71573;BME280;59408;51.032;9.410;2022-08-14T00:31:58;98803.09;;;16.60;83.09
71573;BME280;59408;51.032;9.410;2022-08-14T00:34:25;98803.47;;;16.55;83.21
71573;BME280;59408;51.032;9.410;2022-08-14T00:37:12;98802.22;;;16.49;83.64
71573;BME280;59408;51.032;9.410;2022-08-14T00:39:38;98805.72;;;16.39;84.98
71573;BME280;59408;51.032;9.410;2022-08-14T00:42:09;98798.59;;;16.34;84.05
71573;BME280;59408;51.032;9.410;2022-08-14T00:44:56;98792.25;;;16.30;84.99
71573;BME280;59408;51.032;9.410;2022-08-14T00:47:23;98791.03;;;16.24;84.96
71573;BME280;59408;51.032;9.410;2022-08-14T00:49:53;98796.53;;;16.20;84.78
71573;BME280;59408;51.032;9.410;2022-08-14T00:52:20;98797.69;;;16.16;85.11
71573;BME280;59408;51.032;9.410;2022-08-14T00:54:49;98798.44;;;16.13;85.29
71573;BME280;59408;51.032;9.410;2022-08-14T00:57:26;98792.13;;;16.09;85.71
71573;BME280;59408;51.032;9.410;2022-08-14T00:59:53;98795.22;;;16.04;85.80
71573;BME280;59408;51.032;9.410;2022-08-14T01:02:20;98790.88;;;15.99;84.68
71573;BME280;59408;51.032;9.410;2022-08-14T01:04:47;98797.91;;;15.97;85.24
71573;BME280;59408;51.032;9.410;2022-08-14T01:07:21;98795.53;;;15.92;86.27
71573;BME280;59408;51.032;9.410;2022-08-14T01:09:48;98786.81;;;15.86;85.50
71573;BME280;59408;51.032;9.410;2022-08-14T01:12:17;98784.44;;;15.84;86.57
71573;BME280;59408;51.032;9.410;2022-08-14T01:14:58;98776.53;;;15.79;86.30
71573;BME280;59408;51.032;9.410;2022-08-14T01:17:29;98772.59;;;15.77;85.29
71573;BME280;59408;51.032;9.410;2022-08-14T01:19:56;98772.19;;;15.75;84.51
71573;BME280;59408;51.032;9.410;2022-08-14T01:22:24;98774.13;;;15.71;85.83
71573;BME280;59408;51.032;9.410;2022-08-14T01:24:55;98776.00;;;15.63;85.97
71573;BME280;59408;51.032;9.410;2022-08-14T01:27:23;98778.69;;;15.56;85.75
71573;BME280;59408;51.032;9.410;2022-08-14T01:29:56;98780.16;;;15.50;87.15
71573;BME280;59408;51.032;9.410;2022-08-14T01:32:30;98779.69;;;15.41;86.91
71573;BME280;59408;51.032;9.410;2022-08-14T01:35:08;98776.50;;;15.39;86.88
71573;BME280;59408;51.032;9.410;2022-08-14T01:37:57;98780.78;;;15.33;86.86
71573;BME280;59408;51.032;9.410;2022-08-14T01:40:24;98776.81;;;15.30;87.77
71573;BME280;59408;51.032;9.410;2022-08-14T01:43:07;98769.75;;;15.29;87.46
71573;BME280;59408;51.032;9.410;2022-08-14T01:45:36;98763.06;;;15.27;87.64
71573;BME280;59408;51.032;9.410;2022-08-14T01:48:06;98770.88;;;15.25;88.18
71573;BME280;59408;51.032;9.410;2022-08-14T01:50:40;98763.38;;;15.22;87.49
71573;BME280;59408;51.032;9.410;2022-08-14T01:53:08;98769.28;;;15.20;88.36
71573;BME280;59408;51.032;9.410;2022-08-14T01:55:36;98760.25;;;15.20;87.31
71573;BME280;59408;51.032;9.410;2022-08-14T01:58:03;98761.41;;;15.19;87.51
71573;BME280;59408;51.032;9.410;2022-08-14T02:00:48;98768.78;;;15.15;87.21
71573;BME280;59408;51.032;9.410;2022-08-14T02:03:15;98769.94;;;15.10;87.53
71573;BME280;59408;51.032;9.410;2022-08-14T02:05:42;98760.81;;;15.02;87.38
71573;BME280;59408;51.032;9.410;2022-08-14T02:08:10;98750.59;;;14.99;87.53
71573;BME280;59408;51.032;9.410;2022-08-14T02:10:38;98750.91;;;14.94;87.90
71573;BME280;59408;51.032;9.410;2022-08-14T02:13:13;98738.69;;;14.88;88.37
71573;BME280;59408;51.032;9.410;2022-08-14T02:15:42;98730.81;;;14.87;89.59
71573;BME280;59408;51.032;9.410;2022-08-14T02:18:09;98724.50;;;14.83;89.48
71573;BME280;59408;51.032;9.410;2022-08-14T02:20:37;98722.91;;;14.82;88.43
71573;BME280;59408;51.032;9.410;2022-08-14T02:23:05;98723.28;;;14.80;88.04
71573;BME280;59408;51.032;9.410;2022-08-14T02:25:35;98722.06;;;14.78;89.45
71573;BME280;59408;51.032;9.410;2022-08-14T02:28:04;98727.91;;;14.73;89.45
71573;BME280;59408;51.032;9.410;2022-08-14T02:30:51;98724.31;;;14.68;89.15
71573;BME280;59408;51.032;9.410;2022-08-14T02:33:18;98726.25;;;14.64;89.53
71573;BME280;59408;51.032;9.410;2022-08-14T02:35:45;98718.75;;;14.61;89.02
71573;BME280;59408;51.032;9.410;2022-08-14T02:38:18;98723.44;;;14.61;89.24
71573;BME280;59408;51.032;9.410;2022-08-14T02:41:01;98722.63;;;14.57;89.64
71573;BME280;59408;51.032;9.410;2022-08-14T02:43:34;98713.97;;;14.55;90.25
71573;BME280;59408;51.032;9.410;2022-08-14T02:46:03;98707.16;;;14.49;91.71
71573;BME280;59408;51.032;9.410;2022-08-14T02:48:29;98707.94;;;14.46;90.75
71573;BME280;59408;51.032;9.410;2022-08-14T02:51:16;98702.38;;;14.42;90.31
71573;BME280;59408;51.032;9.410;2022-08-14T02:53:44;98693.72;;;14.40;90.23
71573;BME280;59408;51.032;9.410;2022-08-14T02:56:14;98692.91;;;14.36;91.92
71573;BME280;59408;51.032;9.410;2022-08-14T02:59:01;98695.59;;;14.32;89.47
71573;BME280;59408;51.032;9.410;2022-08-14T03:01:32;98689.31;;;14.32;90.40
71573;BME280;59408;51.032;9.410;2022-08-14T03:04:16;98682.63;;;14.29;90.34
71573;BME280;59408;51.032;9.410;2022-08-14T03:06:47;98683.38;;;14.26;90.15
71573;BME280;59408;51.032;9.410;2022-08-14T03:09:31;98676.63;;;14.20;92.55
71573;BME280;59408;51.032;9.410;2022-08-14T03:12:19;98670.72;;;14.18;92.19
71573;BME280;59408;51.032;9.410;2022-08-14T03:14:58;98677.00;;;14.19;92.46
71573;BME280;59408;51.032;9.410;2022-08-14T03:17:25;98675.78;;;14.16;92.45
71573;BME280;59408;51.032;9.410;2022-08-14T03:19:57;98667.91;;;14.15;92.87
71573;BME280;59408;51.032;9.410;2022-08-14T03:22:24;98662.81;;;14.13;92.85
71573;BME280;59408;51.032;9.410;2022-08-14T03:24:53;98668.72;;;14.15;93.52
71573;BME280;59408;51.032;9.410;2022-08-14T03:27:21;98664.03;;;14.16;93.19
71573;BME280;59408;51.032;9.410;2022-08-14T03:29:52;98664.03;;;14.16;92.87
71573;BME280;59408;51.032;9.410;2022-08-14T03:32:18;98660.53;;;14.19;93.34
71573;BME280;59408;51.032;9.410;2022-08-14T03:34:55;98652.25;;;14.15;93.18
71573;BME280;59408;51.032;9.410;2022-08-14T03:37:24;98642.44;;;14.14;93.21
71573;BME280;59408;51.032;9.410;2022-08-14T03:40:10;98642.06;;;14.16;93.66
71573;BME280;59408;51.032;9.410;2022-08-14T03:42:45;98645.19;;;14.14;93.27
71573;BME280;59408;51.032;9.410;2022-08-14T03:45:12;98647.19;;;14.17;93.37
71573;BME280;59408;51.032;9.410;2022-08-14T03:47:59;98640.91;;;14.17;93.59
71573;BME280;59408;51.032;9.410;2022-08-14T03:50:27;98636.16;;;14.14;93.33
71573;BME280;59408;51.032;9.410;2022-08-14T03:52:58;98631.44;;;14.11;93.04
71573;BME280;59408;51.032;9.410;2022-08-14T03:55:26;98630.66;;;14.10;93.91
71573;BME280;59408;51.032;9.410;2022-08-14T03:57:54;98629.84;;;14.10;93.80
71573;BME280;59408;51.032;9.410;2022-08-14T04:00:22;98612.59;;;14.09;94.01
71573;BME280;59408;51.032;9.410;2022-08-14T04:03:09;98610.66;;;14.10;94.26
71573;BME280;59408;51.032;9.410;2022-08-14T04:05:36;98611.38;;;14.07;93.57
71573;BME280;59408;51.032;9.410;2022-08-14T04:08:13;98617.66;;;14.07;93.86
71573;BME280;59408;51.032;9.410;2022-08-14T04:10:57;98615.25;;;14.02;94.13
71573;BME280;59408;51.032;9.410;2022-08-14T04:13:25;98612.88;;;14.01;93.85
71573;BME280;59408;51.032;9.410;2022-08-14T04:15:57;98610.50;;;13.99;93.52
71573;BME280;59408;51.032;9.410;2022-08-14T04:18:30;98611.69;;;13.98;94.58
71573;BME280;59408;51.032;9.410;2022-08-14T04:20:59;98599.53;;;13.99;95.04
71573;BME280;59408;51.032;9.410;2022-08-14T04:23:26;98599.97;;;14.01;95.12
71573;BME280;59408;51.032;9.410;2022-08-14T04:26:00;98596.81;;;14.03;96.26
71573;BME280;59408;51.032;9.410;2022-08-14T04:28:29;98598.41;;;14.04;95.90
71573;BME280;59408;51.032;9.410;2022-08-14T04:31:17;98592.63;;;14.09;95.33
71573;BME280;59408;51.032;9.410;2022-08-14T04:34:03;98591.47;;;14.13;94.89
71573;BME280;59408;51.032;9.410;2022-08-14T04:36:31;98593.50;;;14.16;94.65
71573;BME280;59408;51.032;9.410;2022-08-14T04:39:01;98593.50;;;14.16;94.26
71573;BME280;59408;51.032;9.410;2022-08-14T04:41:28;98591.97;;;14.19;94.25
71573;BME280;59408;51.032;9.410;2022-08-14T04:43:57;98591.19;;;14.22;94.28
71573;BME280;59408;51.032;9.410;2022-08-14T04:46:24;98585.34;;;14.23;94.17
71573;BME280;59408;51.032;9.410;2022-08-14T04:49:11;98594.78;;;14.26;93.90
71573;BME280;59408;51.032;9.410;2022-08-14T04:51:40;98596.00;;;14.28;94.99
71573;BME280;59408;51.032;9.410;2022-08-14T04:54:20;98593.28;;;14.32;94.50
71573;BME280;59408;51.032;9.410;2022-08-14T04:56:49;98596.88;;;14.36;94.46
71573;BME280;59408;51.032;9.410;2022-08-14T04:59:21;98606.31;;;14.39;94.70
71573;BME280;59408;51.032;9.410;2022-08-14T05:01:48;98604.38;;;14.43;94.88
71573;BME280;59408;51.032;9.410;2022-08-14T05:04:22;98606.03;;;14.47;94.90
71573;BME280;59408;51.032;9.410;2022-08-14T05:06:49;98611.16;;;14.52;94.26
71573;BME280;59408;51.032;9.410;2022-08-14T05:09:20;98611.25;;;14.59;93.98
71573;BME280;59408;51.032;9.410;2022-08-14T05:11:47;98608.59;;;14.66;93.64
71573;BME280;59408;51.032;9.410;2022-08-14T05:14:14;98617.72;;;14.74;93.00
71573;BME280;59408;51.032;9.410;2022-08-14T05:17:02;98606.78;;;14.81;94.13
71573;BME280;59408;51.032;9.410;2022-08-14T05:19:32;98608.03;;;14.87;93.82
71573;BME280;59408;51.032;9.410;2022-08-14T05:22:02;98609.25;;;14.93;94.23
71573;BME280;59408;51.032;9.410;2022-08-14T05:24:46;98614.84;;;15.00;93.43
71573;BME280;59408;51.032;9.410;2022-08-14T05:27:16;98623.16;;;15.11;93.06
71573;BME280;59408;51.032;9.410;2022-08-14T05:29:43;98615.78;;;15.22;92.25
71573;BME280;59408;51.032;9.410;2022-08-14T05:32:11;98609.97;;;15.31;91.35
71573;BME280;59408;51.032;9.410;2022-08-14T05:34:38;98610.84;;;15.42;91.51
71573;BME280;59408;51.032;9.410;2022-08-14T05:37:05;98613.69;;;15.53;91.07
71573;BME280;59408;51.032;9.410;2022-08-14T05:39:32;98605.91;;;15.62;90.21
71573;BME280;59408;51.032;9.410;2022-08-14T05:41:59;98601.66;;;15.71;90.76
71573;BME280;59408;51.032;9.410;2022-08-14T05:44:35;98612.34;;;15.83;90.70
71573;BME280;59408;51.032;9.410;2022-08-14T05:47:02;98609.66;;;15.98;90.62
71573;BME280;59408;51.032;9.410;2022-08-14T05:49:30;98604.22;;;16.12;90.64
71573;BME280;59408;51.032;9.410;2022-08-14T05:51:59;98598.03;;;16.29;89.73
71573;BME280;59408;51.032;9.410;2022-08-14T05:54:27;98593.75;;;16.42;89.50
71573;BME280;59408;51.032;9.410;2022-08-14T05:57:01;98594.97;;;16.59;88.72
71573;BME280;59408;51.032;9.410;2022-08-14T05:59:29;98601.72;;;16.76;87.83
71573;BME280;59408;51.032;9.410;2022-08-14T06:02:05;98602.16;;;16.92;87.14
71573;BME280;59408;51.032;9.410;2022-08-14T06:04:33;98602.59;;;17.12;85.98
71573;BME280;59408;51.032;9.410;2022-08-14T06:07:01;98594.28;;;17.22;85.98
71573;BME280;59408;51.032;9.410;2022-08-14T06:09:29;98600.97;;;17.39;84.84
71573;BME280;59408;51.032;9.410;2022-08-14T06:12:06;98603.75;;;17.53;84.64
71573;BME280;59408;51.032;9.410;2022-08-14T06:14:33;98600.19;;;17.67;84.00
71573;BME280;59408;51.032;9.410;2022-08-14T06:17:00;98603.34;;;17.83;83.34
71573;BME280;59408;51.032;9.410;2022-08-14T06:19:26;98602.91;;;17.99;82.64
71573;BME280;59408;51.032;9.410;2022-08-14T06:21:56;98604.03;;;18.16;81.74
71573;BME280;59408;51.032;9.410;2022-08-14T06:24:25;98604.75;;;18.30;81.28
71573;BME280;59408;51.032;9.410;2022-08-14T06:26:52;98608.63;;;18.47;80.33
71573;BME280;59408;51.032;9.410;2022-08-14T06:29:29;98599.13;;;18.62;80.33
71573;BME280;59408;51.032;9.410;2022-08-14T06:31:58;98597.03;;;18.77;79.46
71573;BME280;59408;51.032;9.410;2022-08-14T06:34:45;98603.25;;;18.95;79.10
71573;BME280;59408;51.032;9.410;2022-08-14T06:37:40;98604.69;;;19.14;78.05
71573;BME280;59408;51.032;9.410;2022-08-14T06:40:08;98601.81;;;19.28;78.04
71573;BME280;59408;51.032;9.410;2022-08-14T06:42:53;98599.34;;;19.44;77.57
71573;BME280;59408;51.032;9.410;2022-08-14T06:45:20;98585.41;;;19.55;77.22
71573;BME280;59408;51.032;9.410;2022-08-14T06:47:52;98581.69;;;19.72;76.29
71573;BME280;59408;51.032;9.410;2022-08-14T06:50:21;98584.28;;;19.86;75.62
71573;BME280;59408;51.032;9.410;2022-08-14T06:52:55;98591.59;;;20.07;74.92
71573;BME280;59408;51.032;9.410;2022-08-14T06:55:21;98588.22;;;20.26;74.38
71573;BME280;59408;51.032;9.410;2022-08-14T06:57:53;98587.59;;;20.46;73.20
71573;BME280;59408;51.032;9.410;2022-08-14T07:00:21;98581.06;;;20.59;72.13
71573;BME280;59408;51.032;9.410;2022-08-14T07:02:55;98574.47;;;20.77;72.38
71573;BME280;59408;51.032;9.410;2022-08-14T07:05:22;98573.88;;;20.92;71.72
71573;BME280;59408;51.032;9.410;2022-08-14T07:07:49;98578.78;;;21.08;70.91
71573;BME280;59408;51.032;9.410;2022-08-14T07:10:19;98584.09;;;21.22;70.76
71573;BME280;59408;51.032;9.410;2022-08-14T07:12:45;98582.25;;;21.39;69.85
71573;BME280;59408;51.032;9.410;2022-08-14T07:15:28;98574.03;;;21.55;69.16
71573;BME280;59408;51.032;9.410;2022-08-14T07:17:58;98577.69;;;21.72;67.83
71573;BME280;59408;51.032;9.410;2022-08-14T07:20:26;98578.97;;;21.91;68.64
71573;BME280;59408;51.032;9.410;2022-08-14T07:22:57;98576.03;;;21.98;67.27
71573;BME280;59408;51.032;9.410;2022-08-14T07:25:34;98565.09;;;22.10;67.52
71573;BME280;59408;51.032;9.410;2022-08-14T07:28:08;98575.47;;;22.26;66.74
71573;BME280;59408;51.032;9.410;2022-08-14T07:30:38;98569.53;;;22.44;66.43
71573;BME280;59408;51.032;9.410;2022-08-14T07:33:17;98572.81;;;22.59;65.65
71573;BME280;59408;51.032;9.410;2022-08-14T07:35:55;98571.81;;;22.69;65.24
71573;BME280;59408;51.032;9.410;2022-08-14T07:38:25;98577.41;;;22.85;65.65
71573;BME280;59408;51.032;9.410;2022-08-14T07:40:55;98572.22;;;23.03;64.14
71573;BME280;59408;51.032;9.410;2022-08-14T07:43:23;98573.44;;;23.18;63.72
71573;BME280;59408;51.032;9.410;2022-08-14T07:45:51;98567.47;;;23.36;62.01
71573;BME280;59408;51.032;9.410;2022-08-14T07:48:19;98570.91;;;23.40;63.27
71573;BME280;59408;51.032;9.410;2022-08-14T07:50:51;98571.94;;;23.63;62.80
71573;BME280;59408;51.032;9.410;2022-08-14T07:53:20;98565.03;;;23.83;61.89
71573;BME280;59408;51.032;9.410;2022-08-14T07:55:48;98567.09;;;23.95;61.67
71573;BME280;59408;51.032;9.410;2022-08-14T07:58:36;98561.38;;;24.15;61.17
71573;BME280;59408;51.032;9.410;2022-08-14T08:01:18;98549.38;;;24.44;60.22
71573;BME280;59408;51.032;9.410;2022-08-14T08:03:45;98557.03;;;24.68;58.88
71573;BME280;59408;51.032;9.410;2022-08-14T08:06:17;98545.31;;;24.86;57.97
71573;BME280;59408;51.032;9.410;2022-08-14T08:08:45;98540.06;;;24.88;58.75
71573;BME280;59408;51.032;9.410;2022-08-14T08:11:31;98540.50;;;24.99;57.65
71573;BME280;59408;51.032;9.410;2022-08-14T08:14:05;98540.81;;;25.14;57.96
71573;BME280;59408;51.032;9.410;2022-08-14T08:16:36;98536.81;;;25.28;56.99
71573;BME280;59408;51.032;9.410;2022-08-14T08:19:03;98536.41;;;25.51;57.11
71573;BME280;59408;51.032;9.410;2022-08-14T08:21:39;98516.69;;;25.67;56.92
71573;BME280;59408;51.032;9.410;2022-08-14T08:24:10;98511.19;;;25.98;55.12
71573;BME280;59408;51.032;9.410;2022-08-14T08:26:44;98513.44;;;26.03;53.92
71573;BME280;59408;51.032;9.410;2022-08-14T08:29:18;98515.88;;;26.01;55.20
71573;BME280;59408;51.032;9.410;2022-08-14T08:31:48;98521.97;;;26.31;54.58
71573;BME280;59408;51.032;9.410;2022-08-14T08:34:18;98520.06;;;26.49;52.44
71573;BME280;59408;51.032;9.410;2022-08-14T08:36:49;98515.44;;;26.55;53.62
71573;BME280;59408;51.032;9.410;2022-08-14T08:39:15;98500.13;;;26.78;52.02
71573;BME280;59408;51.032;9.410;2022-08-14T08:41:48;98505.31;;;26.89;51.06
71573;BME280;59408;51.032;9.410;2022-08-14T08:44:27;98507.34;;;26.98;50.23
71573;BME280;59408;51.032;9.410;2022-08-14T08:47:00;98496.66;;;27.14;50.56
71573;BME280;59408;51.032;9.410;2022-08-14T08:49:35;98502.16;;;27.36;49.05
71573;BME280;59408;51.032;9.410;2022-08-14T08:52:08;98495.47;;;27.34;48.66
71573;BME280;59408;51.032;9.410;2022-08-14T08:54:52;98497.50;;;27.42;47.99
71573;BME280;59408;51.032;9.410;2022-08-14T08:57:19;98498.44;;;27.66;47.84
71573;BME280;59408;51.032;9.410;2022-08-14T08:59:48;98501.88;;;27.80;48.69
71573;BME280;59408;51.032;9.410;2022-08-14T09:02:24;98495.00;;;28.08;46.33
71573;BME280;59408;51.032;9.410;2022-08-14T09:05:00;98496.94;;;28.35;46.00
71573;BME280;59408;51.032;9.410;2022-08-14T09:07:27;98489.72;;;28.61;45.42
71573;BME280;59408;51.032;9.410;2022-08-14T09:09:56;98486.03;;;28.79;44.49
71573;BME280;59408;51.032;9.410;2022-08-14T09:12:25;98488.25;;;28.24;45.24
71573;BME280;59408;51.032;9.410;2022-08-14T09:15:00;98486.75;;;28.65;45.70
71573;BME280;59408;51.032;9.410;2022-08-14T09:17:27;98488.72;;;28.73;43.49
71573;BME280;59408;51.032;9.410;2022-08-14T09:19:54;98478.56;;;29.09;43.94
71573;BME280;59408;51.032;9.410;2022-08-14T09:22:22;98478.97;;;29.17;43.72
71573;BME280;59408;51.032;9.410;2022-08-14T09:25:04;98471.75;;;29.48;43.21
71573;BME280;59408;51.032;9.410;2022-08-14T09:27:33;98476.84;;;29.59;42.44
71573;BME280;59408;51.032;9.410;2022-08-14T09:30:03;98472.25;;;29.62;43.17
71573;BME280;59408;51.032;9.410;2022-08-14T09:33:02;98473.97;;;29.98;42.83
71573;BME280;59408;51.032;9.410;2022-08-14T09:35:45;98475.44;;;30.37;41.50
71573;BME280;59408;51.032;9.410;2022-08-14T09:38:26;98472.41;;;30.55;41.50
71573;BME280;59408;51.032;9.410;2022-08-14T09:41:04;98476.63;;;30.80;41.33
71573;BME280;59408;51.032;9.410;2022-08-14T09:43:44;98471.72;;;30.75;40.75
71573;BME280;59408;51.032;9.410;2022-08-14T09:46:15;98467.88;;;30.93;41.26
71573;BME280;59408;51.032;9.410;2022-08-14T09:48:57;98466.53;;;31.09;40.42
71573;BME280;59408;51.032;9.410;2022-08-14T09:51:24;98462.69;;;31.26;39.48
71573;BME280;59408;51.032;9.410;2022-08-14T09:54:00;98463.38;;;31.42;40.45
71573;BME280;59408;51.032;9.410;2022-08-14T09:56:48;98463.63;;;31.18;38.69
71573;BME280;59408;51.032;9.410;2022-08-14T09:59:23;98461.88;;;31.06;39.99
71573;BME280;59408;51.032;9.410;2022-08-14T10:01:51;98460.56;;;31.42;38.32
71573;BME280;59408;51.032;9.410;2022-08-14T10:04:21;98465.34;;;31.56;39.15
71573;BME280;59408;51.032;9.410;2022-08-14T10:07:03;98463.63;;;31.38;38.77
71573;BME280;59408;51.032;9.410;2022-08-14T10:09:29;98462.34;;;31.39;38.76
71573;BME280;59408;51.032;9.410;2022-08-14T10:12:01;98456.31;;;31.52;39.80
71573;BME280;59408;51.032;9.410;2022-08-14T10:14:32;98452.03;;;31.77;38.41
71573;BME280;59408;51.032;9.410;2022-08-14T10:17:04;98447.00;;;31.05;39.31
71573;BME280;59408;51.032;9.410;2022-08-14T10:19:34;98441.06;;;30.33;40.95
71573;BME280;59408;51.032;9.410;2022-08-14T10:22:12;98436.13;;;30.78;40.37
71573;BME280;59408;51.032;9.410;2022-08-14T10:25:09;98438.13;;;31.73;40.28
71573;BME280;59408;51.032;9.410;2022-08-14T10:27:36;98426.00;;;32.19;36.89
71573;BME280;59408;51.032;9.410;2022-08-14T10:30:11;98431.03;;;31.57;37.91
71573;BME280;59408;51.032;9.410;2022-08-14T10:32:49;98426.72;;;31.88;38.04
71573;BME280;59408;51.032;9.410;2022-08-14T10:35:17;98424.97;;;32.53;37.02
71573;BME280;59408;51.032;9.410;2022-08-14T10:37:49;98432.97;;;32.60;37.18
71573;BME280;59408;51.032;9.410;2022-08-14T10:40:25;98415.25;;;32.97;36.60
71573;BME280;59408;51.032;9.410;2022-08-14T10:43:19;98414.38;;;32.79;35.63
71573;BME280;59408;51.032;9.410;2022-08-14T10:45:57;98421.97;;;31.99;36.35
71573;BME280;59408;51.032;9.410;2022-08-14T10:48:56;98429.75;;;32.36;36.01
71573;BME280;59408;51.032;9.410;2022-08-14T10:51:24;98417.34;;;32.22;37.22
71573;BME280;59408;51.032;9.410;2022-08-14T10:53:53;98413.03;;;32.06;36.63
71573;BME280;59408;51.032;9.410;2022-08-14T10:56:28;98403.53;;;32.72;35.30
71573;BME280;59408;51.032;9.410;2022-08-14T10:59:00;98400.34;;;32.54;34.77
71573;BME280;59408;51.032;9.410;2022-08-14T11:01:29;98396.50;;;32.94;35.37
71573;BME280;59408;51.032;9.410;2022-08-14T11:03:59;98382.00;;;33.34;34.74
71573;BME280;59408;51.032;9.410;2022-08-14T11:06:26;98388.72;;;33.53;36.06
71573;BME280;59408;51.032;9.410;2022-08-14T11:08:53;98384.59;;;33.43;34.70
71573;BME280;59408;51.032;9.410;2022-08-14T11:11:21;98394.09;;;32.81;34.74
71573;BME280;59408;51.032;9.410;2022-08-14T11:13:48;98382.03;;;32.43;36.30
71573;BME280;59408;51.032;9.410;2022-08-14T11:16:15;98379.09;;;33.12;36.05
71573;BME280;59408;51.032;9.410;2022-08-14T11:18:45;98380.28;;;32.46;34.79
71573;BME280;59408;51.032;9.410;2022-08-14T11:21:19;98375.66;;;32.97;35.38
71573;BME280;59408;51.032;9.410;2022-08-14T11:23:47;98365.63;;;33.72;32.90
71573;BME280;59408;51.032;9.410;2022-08-14T11:26:19;98367.47;;;33.92;32.38
71573;BME280;59408;51.032;9.410;2022-08-14T11:28:48;98367.63;;;33.43;33.30
71573;BME280;59408;51.032;9.410;2022-08-14T11:31:18;98367.56;;;33.21;33.76
71573;BME280;59408;51.032;9.410;2022-08-14T11:33:49;98367.78;;;33.17;34.83
71573;BME280;59408;51.032;9.410;2022-08-14T11:36:21;98366.03;;;32.72;34.97
71573;BME280;59408;51.032;9.410;2022-08-14T11:38:48;98366.44;;;32.17;35.09
71573;BME280;59408;51.032;9.410;2022-08-14T11:41:19;98368.13;;;32.03;36.18
71573;BME280;59408;51.032;9.410;2022-08-14T11:43:48;98364.84;;;32.84;34.96
71573;BME280;59408;51.032;9.410;2022-08-14T11:46:24;98350.88;;;32.27;34.78
71573;BME280;59408;51.032;9.410;2022-08-14T11:49:01;98360.94;;;31.70;35.96
71573;BME280;59408;51.032;9.410;2022-08-14T11:51:33;98353.72;;;31.69;36.44
71573;BME280;59408;51.032;9.410;2022-08-14T11:54:20;98339.31;;;31.16;37.68
71573;BME280;59408;51.032;9.410;2022-08-14T11:57:00;98332.28;;;31.26;37.99
71573;BME280;59408;51.032;9.410;2022-08-14T11:59:27;98324.31;;;31.24;37.12
71573;BME280;59408;51.032;9.410;2022-08-14T12:02:08;98323.72;;;32.77;36.01
71573;BME280;59408;51.032;9.410;2022-08-14T12:04:55;98317.25;;;33.53;34.31
71573;BME280;59408;51.032;9.410;2022-08-14T12:07:24;98318.28;;;34.06;33.57
71573;BME280;59408;51.032;9.410;2022-08-14T12:09:52;98318.97;;;34.68;32.58
71573;BME280;59408;51.032;9.410;2022-08-14T12:12:23;98305.28;;;34.77;32.61
71573;BME280;59408;51.032;9.410;2022-08-14T12:15:03;98300.88;;;34.82;32.98
71573;BME280;59408;51.032;9.410;2022-08-14T12:17:31;98297.44;;;34.20;32.86
71573;BME280;59408;51.032;9.410;2022-08-14T12:20:15;98292.38;;;34.82;31.55
71573;BME280;59408;51.032;9.410;2022-08-14T12:23:00;98297.47;;;35.41;30.68
71573;BME280;59408;51.032;9.410;2022-08-14T12:25:27;98290.53;;;35.72;31.28
71573;BME280;59408;51.032;9.410;2022-08-14T12:27:56;98283.13;;;36.23;29.89
71573;BME280;59408;51.032;9.410;2022-08-14T12:30:29;98291.69;;;36.66;29.00
71573;BME280;59408;51.032;9.410;2022-08-14T12:33:06;98290.38;;;35.23;29.63
71573;BME280;59408;51.032;9.410;2022-08-14T12:35:44;98290.22;;;34.30;32.04
71573;BME280;59408;51.032;9.410;2022-08-14T12:38:13;98286.31;;;34.50;32.57
71573;BME280;59408;51.032;9.410;2022-08-14T12:40:46;98273.53;;;33.87;31.99
71573;BME280;59408;51.032;9.410;2022-08-14T12:43:13;98281.72;;;33.24;33.75
71573;BME280;59408;51.032;9.410;2022-08-14T12:45:45;98282.78;;;33.32;34.58
71573;BME280;59408;51.032;9.410;2022-08-14T12:48:12;98286.13;;;33.31;33.20
71573;BME280;59408;51.032;9.410;2022-08-14T12:50:56;98278.56;;;33.00;34.87
71573;BME280;59408;51.032;9.410;2022-08-14T12:53:34;98278.44;;;32.66;35.71
71573;BME280;59408;51.032;9.410;2022-08-14T12:56:04;98283.41;;;32.29;36.33
71573;BME280;59408;51.032;9.410;2022-08-14T12:58:52;98271.69;;;32.04;36.54
71573;BME280;59408;51.032;9.410;2022-08-14T13:01:21;98263.19;;;31.99;36.36
71573;BME280;59408;51.032;9.410;2022-08-14T13:03:48;98265.34;;;31.78;35.49
71573;BME280;59408;51.032;9.410;2022-08-14T13:06:18;98271.00;;;31.52;36.72
71573;BME280;59408;51.032;9.410;2022-08-14T13:08:46;98264.59;;;31.52;35.83
71573;BME280;59408;51.032;9.410;2022-08-14T13:11:20;98273.78;;;31.73;36.41
71573;BME280;59408;51.032;9.410;2022-08-14T13:13:51;98261.22;;;31.74;34.53
71573;BME280;59408;51.032;9.410;2022-08-14T13:16:21;98253.69;;;32.39;34.58
71573;BME280;59408;51.032;9.410;2022-08-14T13:19:04;98245.25;;;33.48;32.68
71573;BME280;59408;51.032;9.410;2022-08-14T13:21:37;98241.84;;;34.22;30.34
71573;BME280;59408;51.032;9.410;2022-08-14T13:24:25;98240.09;;;33.92;33.34
71573;BME280;59408;51.032;9.410;2022-08-14T13:26:54;98234.97;;;33.51;32.75
71573;BME280;59408;51.032;9.410;2022-08-14T13:29:23;98227.94;;;32.91;32.90